Time,TemperatureF,DewpointF,PressureIn,WindDirection,WindDirectionDegrees,WindSpeedMPH,WindSpeedGustMPH,Humidity,HourlyPrecipIn,Conditions,Clouds,dailyrainin,SoftwareType,DateUTC
2013-08-02 00:02:00,68.9,58.7,30.03,SE,135,0.0,0.0,70,0.00,CLR,BKN,0.00,WeatherDisplay:10.37,2013-08-01 22:02:00,
2013-08-02 00:07:00,68.5,58.4,30.03,SE,135,0.0,0.0,70,0.00,CLR,BKN,0.00,WeatherDisplay:10.37,2013-08-01 22:07:00,
2013-08-02 00:12:00,68.4,58.2,30.03,SE,135,0.0,0.0,70,0.00,CLR,BKN,0.00,WeatherDisplay:10.37,2013-08-01 22:12:00,
2013-08-02 00:17:00,68.2,58.4,30.03,East,90,1.6,1.6,71,0.00,CLR,BKN,0.00,WeatherDisplay:10.37,2013-08-01 22:17:00,
2013-08-02 00:22:00,68.0,58.2,30.03,East,90,1.6,1.6,71,0.00,CLR,BKN,0.00,WeatherDisplay:10.37,2013-08-01 22:22:00,
2013-08-02 00:27:00,67.8,58.1,30.03,North,0,1.2,0.0,71,0.00,CLR,BKN,0.00,WeatherDisplay:10.37,2013-08-01 22:27:00,
2013-08-02 00:32:00,67.6,58.3,30.03,North,0,1.6,1.6,72,0.00,CLR,BKN,0.00,WeatherDisplay:10.37,2013-08-01 22:32:00,
2013-08-02 00:37:00,67.5,58.1,30.03,North,0,1.2,0.0,72,0.00,CLR,BKN,0.00,WeatherDisplay:10.37,2013-08-01 22:37:00,
2013-08-02 00:44:00,67.3,58.3,30.03,East,90,2.3,2.3,73,0.00,CLR,BKN,0.00,WeatherDisplay:10.37,2013-08-01 22:44:00,
2013-08-02 00:49:00,67.3,58.3,30.03,SE,135,1.2,0.0,73,0.00,CLR,BKN,0.00,WeatherDisplay:10.37,2013-08-01 22:49:00,
2013-08-02 00:54:00,67.1,58.2,30.03,East,90,1.6,0.0,73,0.00,CLR,BKN,0.00,WeatherDisplay:10.37,2013-08-01 22:54:00,
2013-08-02 00:59:00,66.7,57.8,30.03,North,0,1.6,0.0,73,0.00,CLR,BKN,0.00,WeatherDisplay:10.37,2013-08-01 22:59:00,
2013-08-02 01:04:00,66.6,58.0,30.03,North,0,1.6,1.6,74,0.00,CLR,BKN,0.00,WeatherDisplay:10.37,2013-08-01 23:04:00,
2013-08-02 01:10:00,66.4,57.8,30.04,North,0,1.0,2.0,74,0.00,CLR,BKN,0.00,WeatherDisplay:10.37,2013-08-01 23:10:00,
2013-08-02 01:15:00,66.2,58.0,30.03,NE,45,3.5,3.5,75,0.00,CLR,BKN,0.00,WeatherDisplay:10.37,2013-08-01 23:15:00,
2013-08-02 01:20:00,66.2,58.4,30.04,NE,45,3.5,3.5,76,0.00,CLR,BKN,0.00,WeatherDisplay:10.37,2013-08-01 23:20:00,
2013-08-02 01:25:00,66.0,58.6,30.04,NE,45,3.5,3.5,77,0.00,CLR,BKN,0.00,WeatherDisplay:10.37,2013-08-01 23:25:00,
2013-08-02 01:31:00,65.8,58.8,30.04,NW,315,2.3,0.0,78,0.00,CLR,BKN,0.00,WeatherDisplay:10.37,2013-08-01 23:31:00,
2013-08-02 01:36:00,65.7,58.6,30.04,West,270,2.3,2.3,78,0.00,CLR,BKN,0.00,WeatherDisplay:10.37,2013-08-01 23:36:00,
2013-08-02 01:42:00,65.7,59.0,30.04,North,0,3.5,3.5,79,0.00,CLR,BKN,0.00,WeatherDisplay:10.37,2013-08-01 23:42:00,
2013-08-02 01:47:00,65.7,59.0,30.04,North,0,3.5,3.5,79,0.00,CLR,BKN,0.00,WeatherDisplay:10.37,2013-08-01 23:47:00,
2013-08-02 01:52:00,65.7,59.3,30.04,NE,45,1.2,0.0,80,0.00,CLR,BKN,0.00,WeatherDisplay:10.37,2013-08-01 23:52:00,
2013-08-02 01:58:00,65.7,59.3,30.04,North,0,3.5,3.5,80,0.00,CLR,BKN,0.00,WeatherDisplay:10.37,2013-08-01 23:58:00,
2013-08-02 02:03:00,65.7,59.3,30.04,NW,315,3.5,3.5,80,0.00,CLR,BKN,0.00,WeatherDisplay:10.37,2013-08-02 00:03:00,
2013-08-02 02:08:00,65.5,59.5,30.04,North,0,2.3,2.3,81,0.00,CLR,BKN,0.00,WeatherDisplay:10.37,2013-08-02 00:08:00,
2013-08-02 02:13:00,65.3,59.7,30.04,NE,45,3.5,3.5,82,0.00,CLR,BKN,0.00,WeatherDisplay:10.37,2013-08-02 00:13:00,
2013-08-02 02:19:00,65.1,59.5,30.04,East,90,3.5,3.5,82,0.00,CLR,BKN,0.00,WeatherDisplay:10.37,2013-08-02 00:19:00,
2013-08-02 02:25:00,65.1,59.5,30.04,NNE,32,0.0,2.0,82,0.00,CLR,BKN,0.00,WeatherDisplay:10.37,2013-08-02 00:25:00,
2013-08-02 02:30:00,64.9,59.3,30.04,NNE,32,1.0,2.0,82,0.00,CLR,BKN,0.00,WeatherDisplay:10.37,2013-08-02 00:30:00,
2013-08-02 02:35:00,64.8,59.1,30.04,NE,45,1.6,1.6,82,0.00,CLR,BKN,0.00,WeatherDisplay:10.37,2013-08-02 00:35:00,
2013-08-02 02:41:00,64.6,59.0,30.05,NE,45,2.3,0.0,82,0.00,CLR,BKN,0.00,WeatherDisplay:10.37,2013-08-02 00:41:00,
2013-08-02 02:47:00,64.2,58.3,30.05,East,90,1.6,0.0,81,0.00,CLR,BKN,0.00,WeatherDisplay:10.37,2013-08-02 00:47:00,
2013-08-02 02:52:00,64.0,58.1,30.04,SE,135,1.6,1.6,81,0.00,CLR,BKN,0.00,WeatherDisplay:10.37,2013-08-02 00:52:00,
2013-08-02 02:57:00,63.9,57.9,30.04,East,90,2.3,2.3,81,0.00,CLR,BKN,0.00,WeatherDisplay:10.37,2013-08-02 00:57:00,
2013-08-02 03:02:00,63.7,57.7,30.04,SE,135,1.6,0.0,81,0.00,CLR,BKN,0.00,WeatherDisplay:10.37,2013-08-02 01:02:00,
2013-08-02 03:07:00,63.3,57.4,30.04,East,90,1.6,1.6,81,0.00,CLR,BKN,0.00,WeatherDisplay:10.37,2013-08-02 01:07:00,
2013-08-02 03:13:00,63.1,57.2,30.03,East,90,2.3,2.3,81,0.00,CLR,BKN,0.00,WeatherDisplay:10.37,2013-08-02 01:13:00,
2013-08-02 03:18:00,63.1,57.2,30.03,East,90,1.6,1.6,81,0.00,CLR,BKN,0.00,WeatherDisplay:10.37,2013-08-02 01:18:00,
2013-08-02 03:23:00,63.0,57.0,30.03,East,90,1.2,0.0,81,0.00,CLR,BKN,0.00,WeatherDisplay:10.37,2013-08-02 01:23:00,
2013-08-02 03:28:00,62.8,56.9,30.03,West,270,0.7,0.0,81,0.00,CLR,BKN,0.00,WeatherDisplay:10.37,2013-08-02 01:28:00,
2013-08-02 03:33:00,62.8,56.9,30.04,East,90,1.2,0.0,81,0.00,CLR,BKN,0.00,WeatherDisplay:10.37,2013-08-02 01:33:00,
2013-08-02 03:38:00,62.6,56.7,30.04,SE,135,2.3,2.3,81,0.00,CLR,BKN,0.00,WeatherDisplay:10.37,2013-08-02 01:38:00,
2013-08-02 03:43:00,62.6,57.0,30.04,East,90,1.2,0.0,82,0.00,CLR,BKN,0.00,WeatherDisplay:10.37,2013-08-02 01:43:00,
2013-08-02 03:48:00,62.4,57.2,30.04,East,90,0.0,0.0,83,0.00,CLR,BKN,0.00,WeatherDisplay:10.37,2013-08-02 01:48:00,
2013-08-02 03:53:00,62.4,57.2,30.04,East,90,1.6,1.6,83,0.00,CLR,BKN,0.00,WeatherDisplay:10.37,2013-08-02 01:53:00,
2013-08-02 03:58:00,62.2,57.0,30.04,East,90,1.2,0.0,83,0.00,CLR,BKN,0.00,WeatherDisplay:10.37,2013-08-02 01:58:00,
2013-08-02 04:03:00,62.2,57.0,30.03,East,90,1.2,0.0,83,0.00,CLR,BKN,0.00,WeatherDisplay:10.37,2013-08-02 02:03:00,
2013-08-02 04:08:00,62.1,56.8,30.03,East,90,1.2,0.0,83,0.00,CLR,BKN,0.00,WeatherDisplay:10.37,2013-08-02 02:08:00,
2013-08-02 04:13:00,62.1,56.8,30.03,East,90,0.0,0.0,83,0.00,CLR,BKN,0.00,WeatherDisplay:10.37,2013-08-02 02:13:00,
2013-08-02 04:18:00,61.9,56.7,30.03,East,90,0.0,0.0,83,0.00,CLR,BKN,0.00,WeatherDisplay:10.37,2013-08-02 02:18:00,
2013-08-02 04:24:00,61.9,57.0,30.03,East,90,1.2,0.0,84,0.00,CLR,BKN,0.00,WeatherDisplay:10.37,2013-08-02 02:24:00,
2013-08-02 04:29:00,61.9,57.0,30.04,East,90,0.0,0.0,84,0.00,CLR,BKN,0.00,WeatherDisplay:10.37,2013-08-02 02:29:00,
2013-08-02 04:35:00,61.9,57.0,30.04,East,90,0.0,1.0,84,0.00,CLR,BKN,0.00,WeatherDisplay:10.37,2013-08-02 02:35:00,
2013-08-02 04:40:00,61.7,56.8,30.04,East,94,0.0,2.0,84,0.00,CLR,BKN,0.00,WeatherDisplay:10.37,2013-08-02 02:40:00,
2013-08-02 04:45:00,61.5,56.6,30.04,SE,142,0.0,2.0,84,0.00,CLR,BKN,0.00,WeatherDisplay:10.37,2013-08-02 02:45:00,
2013-08-02 04:50:00,61.4,56.5,30.04,SSE,151,0.0,2.0,84,0.00,CLR,BKN,0.00,WeatherDisplay:10.37,2013-08-02 02:50:00,
2013-08-02 04:55:00,61.2,56.3,30.04,SE,135,1.2,0.0,84,0.00,CLR,BKN,0.00,WeatherDisplay:10.37,2013-08-02 02:55:00,
2013-08-02 05:00:00,61.0,56.1,30.03,SE,135,1.2,0.0,84,0.00,CLR,BKN,0.00,WeatherDisplay:10.37,2013-08-02 03:00:00,
2013-08-02 05:05:00,60.8,55.9,30.04,SE,135,1.2,0.0,84,0.00,CLR,BKN,0.00,WeatherDisplay:10.37,2013-08-02 03:05:00,
2013-08-02 05:10:00,60.8,55.9,30.04,SE,135,1.2,0.0,84,0.00,CLR,BKN,0.00,WeatherDisplay:10.37,2013-08-02 03:10:00,
2013-08-02 05:15:00,60.6,56.1,30.04,SE,135,1.2,0.0,85,0.00,CLR,BKN,0.00,WeatherDisplay:10.37,2013-08-02 03:15:00,
2013-08-02 05:20:00,60.4,55.9,30.04,SE,135,0.0,0.0,85,0.00,CLR,BKN,0.00,WeatherDisplay:10.37,2013-08-02 03:20:00,
2013-08-02 05:25:00,60.4,55.9,30.04,SE,135,0.0,0.0,85,0.00,CLR,BKN,0.00,WeatherDisplay:10.37,2013-08-02 03:25:00,
2013-08-02 05:32:00,60.3,56.1,30.04,SE,135,1.2,0.0,86,0.00,CLR,BKN,0.00,WeatherDisplay:10.37,2013-08-02 03:32:00,
2013-08-02 05:37:00,60.1,55.9,30.04,NE,45,1.2,0.0,86,0.00,CLR,BKN,0.00,WeatherDisplay:10.37,2013-08-02 03:37:00,
2013-08-02 05:42:00,60.1,55.9,30.05,NE,45,1.2,0.0,86,0.00,CLR,BKN,0.00,WeatherDisplay:10.37,2013-08-02 03:42:00,
2013-08-02 05:47:00,60.1,55.9,30.04,East,90,1.6,1.6,86,0.00,CLR,BKN,0.00,WeatherDisplay:10.37,2013-08-02 03:47:00,
2013-08-02 05:53:00,60.1,55.9,30.04,East,90,1.2,0.0,86,0.00,CLR,BKN,0.00,WeatherDisplay:10.37,2013-08-02 03:53:00,
2013-08-02 05:58:00,60.1,56.2,30.04,SE,135,1.2,0.0,87,0.00,CLR,BKN,0.00,WeatherDisplay:10.37,2013-08-02 03:58:00,
2013-08-02 06:01:00,60.1,56.2,30.05,NE,45,1.2,0.0,87,0.00,CLR,BKN,0.00,WeatherDisplay:10.37,2013-08-02 04:01:00,
2013-08-02 06:03:00,60.1,56.2,30.05,NE,45,1.2,0.0,87,0.00,CLR,BKN,0.00,WeatherDisplay:10.37,2013-08-02 04:03:00,
2013-08-02 06:07:00,60.3,56.4,30.05,NE,45,1.2,0.0,87,0.00,CLR,BKN,0.00,WeatherDisplay:10.37,2013-08-02 04:07:00,
2013-08-02 06:09:00,60.3,56.4,30.05,NE,45,1.2,0.0,87,0.00,CLR,BKN,0.00,WeatherDisplay:10.37,2013-08-02 04:09:00,
2013-08-02 06:10:00,60.3,56.4,30.05,NE,45,0.0,1.0,87,0.00,CLR,BKN,0.00,WeatherDisplay:10.37,2013-08-02 04:10:00,
2013-08-02 06:15:00,60.3,56.4,30.05,East,90,1.2,0.0,87,0.00,CLR,BKN,0.00,WeatherDisplay:10.37,2013-08-02 04:15:00,
2013-08-02 06:20:00,60.4,56.6,30.05,North,0,1.6,1.6,87,0.00,CLR,BKN,0.00,WeatherDisplay:10.37,2013-08-02 04:20:00,
2013-08-02 06:25:00,60.6,57.0,30.05,North,0,1.6,1.6,88,0.00,CLR,BKN,0.00,WeatherDisplay:10.37,2013-08-02 04:25:00,
2013-08-02 06:30:00,61.0,57.1,30.05,NE,45,2.2,0.0,87,0.00,CLR,BKN,0.00,WeatherDisplay:10.37,2013-08-02 04:30:00,
2013-08-02 06:35:00,61.3,57.4,30.05,NNE,22,2.3,2.3,87,0.00,CLR,BKN,0.00,WeatherDisplay:10.37,2013-08-02 04:35:00,
2013-08-02 06:36:00,61.3,57.4,30.05,NE,45,2.3,2.3,87,0.00,CLR,BKN,0.00,WeatherDisplay:10.37,2013-08-02 04:36:00,
2013-08-02 06:41:00,61.9,58.0,30.05,NE,45,2.3,2.3,87,0.00,CLR,BKN,0.00,WeatherDisplay:10.37,2013-08-02 04:41:00,
2013-08-02 06:47:00,62.4,58.5,30.06,North,0,2.3,2.3,87,0.00,CLR,BKN,0.00,WeatherDisplay:10.37,2013-08-02 04:47:00,
2013-08-02 06:52:00,62.8,58.5,30.05,North,0,2.3,2.3,86,0.00,CLR,BKN,0.00,WeatherDisplay:10.37,2013-08-02 04:52:00,
2013-08-02 06:57:00,63.3,58.7,30.06,NE,45,2.3,2.3,85,0.00,CLR,BKN,0.00,WeatherDisplay:10.37,2013-08-02 04:57:00,
2013-08-02 07:02:00,63.9,59.3,30.05,NE,45,2.3,2.3,85,0.00,CLR,BKN,0.00,WeatherDisplay:10.37,2013-08-02 05:02:00,
2013-08-02 07:07:00,64.4,59.8,30.05,North,0,1.6,1.6,85,0.00,CLR,BKN,0.00,WeatherDisplay:10.37,2013-08-02 05:07:00,
2013-08-02 07:12:00,64.8,60.1,30.05,NE,45,1.6,1.6,85,0.00,CLR,BKN,0.00,WeatherDisplay:10.37,2013-08-02 05:12:00,
2013-08-02 07:17:00,65.5,60.5,30.06,East,90,3.5,3.5,84,0.00,CLR,BKN,0.00,WeatherDisplay:10.37,2013-08-02 05:17:00,
2013-08-02 07:22:00,66.2,60.5,30.06,ENE,68,3.5,3.5,82,0.00,CLR,BKN,0.00,WeatherDisplay:10.37,2013-08-02 05:22:00,
2013-08-02 07:27:00,66.6,60.9,30.06,North,0,3.5,3.5,82,0.00,CLR,BKN,0.00,WeatherDisplay:10.37,2013-08-02 05:27:00,
2013-08-02 07:32:00,67.1,61.1,30.06,North,0,2.3,2.3,81,0.00,CLR,BKN,0.00,WeatherDisplay:10.37,2013-08-02 05:32:00,
2013-08-02 07:37:00,67.6,61.6,30.06,East,90,3.5,3.5,81,0.00,CLR,BKN,0.00,WeatherDisplay:10.37,2013-08-02 05:37:00,
2013-08-02 07:42:00,68.2,61.4,30.06,NE,45,2.3,2.3,79,0.00,CLR,BKN,0.00,WeatherDisplay:10.37,2013-08-02 05:42:00,
2013-08-02 07:47:00,68.7,61.6,30.06,NNW,338,2.3,2.3,78,0.00,CLR,BKN,0.00,WeatherDisplay:10.37,2013-08-02 05:47:00,
2013-08-02 07:52:00,69.1,61.6,30.05,NE,45,2.3,2.3,77,0.00,CLR,BKN,0.00,WeatherDisplay:10.37,2013-08-02 05:52:00,
2013-08-02 07:57:00,69.6,61.7,30.06,NE,45,2.3,2.3,76,0.00,CLR,BKN,0.00,WeatherDisplay:10.37,2013-08-02 05:57:00,
2013-08-02 08:02:00,70.0,61.3,30.06,NE,45,3.5,3.5,74,0.00,CLR,BKN,0.00,WeatherDisplay:10.37,2013-08-02 06:02:00,
2013-08-02 08:07:00,70.0,61.3,30.06,NE,45,3.5,3.5,74,0.00,CLR,BKN,0.00,WeatherDisplay:10.37,2013-08-02 06:07:00,
2013-08-02 08:12:00,71.2,61.7,30.06,SE,135,1.6,1.6,72,0.00,CLR,BKN,0.00,WeatherDisplay:10.37,2013-08-02 06:12:00,
2013-08-02 08:17:00,71.6,61.7,30.06,NE,45,3.5,3.5,71,0.00,CLR,BKN,0.00,WeatherDisplay:10.37,2013-08-02 06:17:00,
2013-08-02 08:22:00,72.1,61.8,30.06,North,0,2.3,2.3,70,0.00,CLR,BKN,0.00,WeatherDisplay:10.37,2013-08-02 06:22:00,
2013-08-02 08:27:00,72.7,62.3,30.06,NW,315,3.5,3.5,70,0.00,CLR,BKN,0.00,WeatherDisplay:10.37,2013-08-02 06:27:00,
2013-08-02 08:32:00,72.7,61.9,30.06,NW,315,4.6,4.6,69,0.00,CLR,BKN,0.00,WeatherDisplay:10.37,2013-08-02 06:32:00,
2013-08-02 08:37:00,73.0,62.3,30.06,NW,315,4.6,4.6,69,0.00,CLR,BKN,0.00,WeatherDisplay:10.37,2013-08-02 06:37:00,
2013-08-02 08:42:00,73.4,62.6,30.06,NE,45,3.5,3.5,69,0.00,CLR,BKN,0.00,WeatherDisplay:10.37,2013-08-02 06:42:00,
2013-08-02 08:47:00,73.9,63.1,30.06,NNE,22,3.8,3.8,69,0.00,CLR,BKN,0.00,WeatherDisplay:10.37,2013-08-02 06:47:00,
2013-08-02 08:52:00,74.3,63.1,30.06,North,0,3.5,3.5,68,0.00,CLR,BKN,0.00,WeatherDisplay:10.37,2013-08-02 06:52:00,
2013-08-02 08:57:00,74.8,63.6,30.06,West,270,3.5,3.5,68,0.00,CLR,BKN,0.00,WeatherDisplay:10.37,2013-08-02 06:57:00,
2013-08-02 09:02:00,75.2,63.1,30.06,NW,315,3.8,3.8,66,0.00,CLR,BKN,0.00,WeatherDisplay:10.37,2013-08-02 07:02:00,
2013-08-02 09:07:00,75.6,63.0,30.06,West,270,3.8,3.8,65,0.00,CLR,BKN,0.00,WeatherDisplay:10.37,2013-08-02 07:07:00,
2013-08-02 09:12:00,75.7,63.1,30.06,NW,315,4.6,4.6,65,0.00,CLR,BKN,0.00,WeatherDisplay:10.37,2013-08-02 07:12:00,
2013-08-02 09:17:00,76.1,63.0,30.06,West,270,3.5,3.5,64,0.00,CLR,BKN,0.00,WeatherDisplay:10.37,2013-08-02 07:17:00,
2013-08-02 09:22:00,76.5,63.4,30.06,East,90,3.5,3.5,64,0.00,CLR,BKN,0.00,WeatherDisplay:10.37,2013-08-02 07:22:00,
2013-08-02 09:27:00,77.0,63.0,30.06,WSW,248,4.6,4.6,62,0.00,CLR,BKN,0.00,WeatherDisplay:10.37,2013-08-02 07:27:00,
2013-08-02 09:32:00,77.4,63.3,30.06,NW,315,3.5,3.5,62,0.00,CLR,BKN,0.00,WeatherDisplay:10.37,2013-08-02 07:32:00,
2013-08-02 09:37:00,77.7,63.2,30.06,NW,315,4.6,4.6,61,0.00,CLR,BKN,0.00,WeatherDisplay:10.37,2013-08-02 07:37:00,
2013-08-02 09:42:00,78.3,63.7,30.06,SW,225,4.6,4.6,61,0.00,CLR,BKN,0.00,WeatherDisplay:10.37,2013-08-02 07:42:00,
2013-08-02 09:47:00,79.0,62.9,30.06,SW,225,4.6,4.6,58,0.00,CLR,BKN,0.00,WeatherDisplay:10.37,2013-08-02 07:47:00,
2013-08-02 09:52:00,79.7,63.1,30.06,SW,225,6.0,6.0,57,0.00,CLR,BKN,0.00,WeatherDisplay:10.37,2013-08-02 07:52:00,
2013-08-02 09:57:00,80.4,62.8,30.06,SW,225,6.0,6.0,55,0.00,CLR,BKN,0.00,WeatherDisplay:10.37,2013-08-02 07:57:00,
2013-08-02 10:02:00,80.6,62.9,30.05,West,270,2.3,2.3,55,0.00,CLR,BKN,0.00,WeatherDisplay:10.37,2013-08-02 08:02:00,
2013-08-02 10:07:00,80.6,62.9,30.06,West,270,2.3,2.3,55,0.00,CLR,BKN,0.00,WeatherDisplay:10.37,2013-08-02 08:07:00,
2013-08-02 10:12:00,81.3,62.0,30.05,South,180,5.8,5.8,52,0.00,CLR,BKN,0.00,WeatherDisplay:10.37,2013-08-02 08:12:00,
2013-08-02 10:17:00,81.7,62.3,30.05,WSW,248,6.0,6.0,52,0.00,CLR,BKN,0.00,WeatherDisplay:10.37,2013-08-02 08:17:00,
2013-08-02 10:22:00,82.2,62.3,30.05,SW,225,8.1,8.1,51,0.00,CLR,BKN,0.00,WeatherDisplay:10.37,2013-08-02 08:22:00,
2013-08-02 10:27:00,82.4,62.5,30.05,NW,315,5.4,5.4,51,0.00,CLR,BKN,0.00,WeatherDisplay:10.37,2013-08-02 08:27:00,
2013-08-02 10:32:00,82.9,63.0,30.05,SW,225,8.1,8.1,51,0.00,CLR,BKN,0.00,WeatherDisplay:10.37,2013-08-02 08:32:00,
2013-08-02 10:37:00,83.3,62.1,30.05,West,270,6.0,6.0,49,0.00,CLR,BKN,0.00,WeatherDisplay:10.37,2013-08-02 08:37:00,
2013-08-02 10:42:00,83.5,62.3,30.05,South,180,5.8,5.8,49,0.00,CLR,BKN,0.00,WeatherDisplay:10.37,2013-08-02 08:42:00,
2013-08-02 10:47:00,83.8,62.6,30.05,South,180,5.8,5.8,49,0.00,CLR,BKN,0.00,WeatherDisplay:10.37,2013-08-02 08:47:00,
2013-08-02 10:52:00,84.7,62.3,30.05,South,180,6.9,6.9,47,0.00,CLR,BKN,0.00,WeatherDisplay:10.37,2013-08-02 08:52:00,
2013-08-02 10:57:00,85.3,62.8,30.05,SW,225,6.9,6.9,47,0.00,CLR,BKN,0.00,WeatherDisplay:10.37,2013-08-02 08:57:00,
2013-08-02 11:02:00,85.8,62.0,30.05,South,180,6.9,6.9,45,0.00,CLR,BKN,0.00,WeatherDisplay:10.37,2013-08-02 09:02:00,
2013-08-02 11:07:00,86.2,61.7,30.05,South,180,6.9,6.9,44,0.00,CLR,BKN,0.00,WeatherDisplay:10.37,2013-08-02 09:07:00,
2013-08-02 11:12:00,86.7,60.9,30.04,WSW,248,5.8,5.8,42,0.00,CLR,BKN,0.00,WeatherDisplay:10.37,2013-08-02 09:12:00,
2013-08-02 11:17:00,86.9,60.4,30.05,SW,225,5.8,5.8,41,0.00,CLR,BKN,0.00,WeatherDisplay:10.37,2013-08-02 09:17:00,
2013-08-02 11:22:00,87.6,61.0,30.04,SW,225,6.0,6.0,41,0.00,CLR,BKN,0.00,WeatherDisplay:10.37,2013-08-02 09:22:00,
2013-08-02 11:27:00,88.2,60.1,30.04,South,180,6.9,6.9,39,0.00,CLR,BKN,0.00,WeatherDisplay:10.37,2013-08-02 09:27:00,
2013-08-02 11:32:00,88.5,58.2,30.05,South,180,6.0,6.0,36,0.00,CLR,BKN,0.00,WeatherDisplay:10.37,2013-08-02 09:32:00,
2013-08-02 11:37:00,88.9,60.0,30.04,SSE,158,6.9,6.9,38,0.00,CLR,BKN,0.00,WeatherDisplay:10.37,2013-08-02 09:37:00,
2013-08-02 11:42:00,89.2,59.6,30.04,SSW,202,8.1,8.1,37,0.00,CLR,BKN,0.00,WeatherDisplay:10.37,2013-08-02 09:42:00,
2013-08-02 11:47:00,89.4,59.0,30.04,West,270,5.8,5.8,36,0.00,CLR,BKN,0.00,WeatherDisplay:10.37,2013-08-02 09:47:00,
2013-08-02 11:53:00,89.2,58.0,30.03,West,270,4.6,4.6,35,0.00,CLR,BKN,0.00,WeatherDisplay:10.37,2013-08-02 09:53:00,
2013-08-02 11:58:00,89.4,59.7,30.03,SW,225,5.8,5.8,37,0.00,CLR,BKN,0.00,WeatherDisplay:10.37,2013-08-02 09:58:00,
2013-08-02 12:03:00,89.8,60.0,30.03,West,270,4.6,4.6,37,0.00,CLR,BKN,0.00,WeatherDisplay:10.37,2013-08-02 10:03:00,
2013-08-02 12:08:00,89.8,58.5,30.03,NW,315,4.6,4.6,35,0.00,CLR,BKN,0.00,WeatherDisplay:10.37,2013-08-02 10:08:00,
2013-08-02 12:13:00,89.6,58.3,30.03,SE,135,5.8,5.8,35,0.00,CLR,BKN,0.00,WeatherDisplay:10.37,2013-08-02 10:13:00,
2013-08-02 12:18:00,90.3,60.5,30.03,SSW,202,5.8,5.8,37,0.00,CLR,BKN,0.00,WeatherDisplay:10.37,2013-08-02 10:18:00,
2013-08-02 12:23:00,90.0,57.8,30.02,SW,225,3.8,3.8,34,0.00,CLR,BKN,0.00,WeatherDisplay:10.37,2013-08-02 10:23:00,
2013-08-02 12:28:00,90.0,58.6,30.02,SW,225,6.0,6.0,35,0.00,CLR,BKN,0.00,WeatherDisplay:10.37,2013-08-02 10:28:00,
2013-08-02 12:33:00,90.3,59.0,30.02,SW,225,8.1,8.1,35,0.00,CLR,BKN,0.00,WeatherDisplay:10.37,2013-08-02 10:33:00,
2013-08-02 12:38:00,90.3,59.0,30.02,SW,225,8.1,8.1,35,0.00,CLR,BKN,0.00,WeatherDisplay:10.37,2013-08-02 10:38:00,
2013-08-02 12:43:00,90.5,59.1,30.02,SW,225,5.8,5.8,35,0.00,CLR,BKN,0.00,WeatherDisplay:10.37,2013-08-02 10:43:00,
2013-08-02 12:48:00,90.3,59.7,30.02,SW,225,5.8,5.8,36,0.00,CLR,BKN,0.00,WeatherDisplay:10.37,2013-08-02 10:48:00,
2013-08-02 12:53:00,90.3,58.1,30.02,WSW,248,4.6,4.6,34,0.00,CLR,BKN,0.00,WeatherDisplay:10.37,2013-08-02 10:53:00,
2013-08-02 12:58:00,90.9,57.8,30.02,South,180,8.1,0.0,33,0.00,CLR,BKN,0.00,WeatherDisplay:10.37,2013-08-02 10:58:00,
2013-08-02 13:03:00,90.9,58.6,30.02,East,90,5.8,5.8,34,0.00,CLR,BKN,0.00,WeatherDisplay:10.37,2013-08-02 11:03:00,
2013-08-02 13:08:00,91.2,58.9,30.01,SW,225,3.8,3.8,34,0.00,CLR,BKN,0.00,WeatherDisplay:10.37,2013-08-02 11:08:00,
2013-08-02 13:13:00,91.8,60.2,30.02,SW,225,8.3,8.3,35,0.00,CLR,BKN,0.00,WeatherDisplay:10.37,2013-08-02 11:13:00,
2013-08-02 13:18:00,91.8,61.0,30.01,SW,225,5.8,5.8,36,0.00,CLR,BKN,0.00,WeatherDisplay:10.37,2013-08-02 11:18:00,
2013-08-02 13:23:00,91.9,60.4,30.01,South,180,11.5,11.5,35,0.00,CLR,BKN,0.00,WeatherDisplay:10.37,2013-08-02 11:23:00,
2013-08-02 13:28:00,92.5,60.8,30.01,SW,225,6.9,6.9,35,0.00,CLR,BKN,0.00,WeatherDisplay:10.37,2013-08-02 11:28:00,
2013-08-02 13:33:00,92.7,60.2,30.00,South,180,4.5,4.5,34,0.00,CLR,BKN,0.00,WeatherDisplay:10.37,2013-08-02 11:33:00,
2013-08-02 13:38:00,92.5,60.0,30.01,NE,45,5.8,5.8,34,0.00,CLR,BKN,0.00,WeatherDisplay:10.37,2013-08-02 11:38:00,
2013-08-02 13:43:00,92.3,59.9,30.00,West,270,5.8,5.8,34,0.00,CLR,BKN,0.00,WeatherDisplay:10.37,2013-08-02 11:43:00,
2013-08-02 13:48:00,92.7,60.2,30.00,SSW,202,6.9,6.9,34,0.00,CLR,BKN,0.00,WeatherDisplay:10.37,2013-08-02 11:48:00,
2013-08-02 13:53:00,92.7,60.2,30.00,South,180,5.8,5.8,34,0.00,CLR,BKN,0.00,WeatherDisplay:10.37,2013-08-02 11:53:00,
2013-08-02 13:58:00,92.5,60.0,30.00,SE,135,3.5,3.5,34,0.00,CLR,BKN,0.00,WeatherDisplay:10.37,2013-08-02 11:58:00,
2013-08-02 14:03:00,92.5,60.0,30.00,South,180,3.5,3.5,34,0.00,CLR,BKN,0.00,WeatherDisplay:10.37,2013-08-02 12:03:00,
2013-08-02 14:08:00,93.0,60.5,30.00,SSW,202,4.6,4.6,34,0.00,CLR,BKN,0.00,WeatherDisplay:10.37,2013-08-02 12:08:00,
2013-08-02 14:13:00,93.2,59.8,29.99,SW,225,8.1,8.1,33,0.00,CLR,BKN,0.00,WeatherDisplay:10.37,2013-08-02 12:13:00,
2013-08-02 14:18:00,93.6,59.3,29.99,South,180,9.2,9.2,32,0.00,CLR,BKN,0.00,WeatherDisplay:10.37,2013-08-02 12:18:00,
2013-08-02 14:23:00,93.7,59.4,29.99,SW,225,5.8,5.8,32,0.00,CLR,BKN,0.00,WeatherDisplay:10.37,2013-08-02 12:23:00,
2013-08-02 14:28:00,93.7,59.4,29.99,SW,225,9.2,9.2,32,0.00,CLR,BKN,0.00,WeatherDisplay:10.37,2013-08-02 12:28:00,
2013-08-02 14:33:00,93.7,59.4,29.99,SW,225,4.6,4.6,32,0.00,CLR,BKN,0.00,WeatherDisplay:10.37,2013-08-02 12:33:00,
2013-08-02 14:38:00,93.4,59.1,29.99,West,270,5.8,5.8,32,0.00,CLR,BKN,0.00,WeatherDisplay:10.37,2013-08-02 12:38:00,
2013-08-02 14:43:00,92.8,59.5,29.98,North,0,5.4,5.4,33,0.00,CLR,BKN,0.00,WeatherDisplay:10.37,2013-08-02 12:43:00,
2013-08-02 14:48:00,93.0,59.7,29.98,West,270,6.0,6.0,33,0.00,CLR,BKN,0.00,WeatherDisplay:10.37,2013-08-02 12:48:00,
2013-08-02 14:53:00,93.0,59.7,29.99,WNW,292,5.8,5.8,33,0.00,CLR,BKN,0.00,WeatherDisplay:10.37,2013-08-02 12:53:00,
2013-08-02 14:58:00,92.8,59.5,29.98,SW,225,5.8,5.8,33,0.00,CLR,BKN,0.00,WeatherDisplay:10.37,2013-08-02 12:58:00,
2013-08-02 15:03:00,93.0,59.7,29.98,North,0,6.9,6.9,33,0.00,CLR,BKN,0.00,WeatherDisplay:10.37,2013-08-02 13:03:00,
2013-08-02 15:08:00,93.0,59.7,29.97,North,0,6.9,6.9,33,0.00,CLR,BKN,0.00,WeatherDisplay:10.37,2013-08-02 13:08:00,
2013-08-02 15:13:00,93.0,58.8,29.98,West,270,6.9,6.9,32,0.00,CLR,BKN,0.00,WeatherDisplay:10.37,2013-08-02 13:13:00,
2013-08-02 15:18:00,93.0,59.7,29.98,SW,225,5.4,5.4,33,0.00,CLR,BKN,0.00,WeatherDisplay:10.37,2013-08-02 13:18:00,
2013-08-02 15:23:00,93.2,59.0,29.97,NNE,22,5.8,5.8,32,0.00,CLR,BKN,0.00,WeatherDisplay:10.37,2013-08-02 13:23:00,
2013-08-02 15:28:00,93.7,58.5,29.97,West,270,4.6,4.6,31,0.00,CLR,BKN,0.00,WeatherDisplay:10.37,2013-08-02 13:28:00,
2013-08-02 15:33:00,94.1,58.8,29.97,NW,315,5.8,5.8,31,0.00,CLR,BKN,0.00,WeatherDisplay:10.37,2013-08-02 13:33:00,
2013-08-02 15:38:00,94.3,59.9,29.97,WNW,292,5.8,5.8,32,0.00,CLR,BKN,0.00,WeatherDisplay:10.37,2013-08-02 13:38:00,
2013-08-02 15:43:00,94.3,59.0,29.97,NW,315,5.8,5.8,31,0.00,CLR,BKN,0.00,WeatherDisplay:10.37,2013-08-02 13:43:00,
2013-08-02 15:48:00,93.9,59.6,29.97,West,270,5.8,5.8,32,0.00,CLR,BKN,0.00,WeatherDisplay:10.37,2013-08-02 13:48:00,
2013-08-02 15:53:00,93.9,59.6,29.97,NE,45,5.8,5.8,32,0.00,CLR,BKN,0.00,WeatherDisplay:10.37,2013-08-02 13:53:00,
2013-08-02 15:59:00,94.1,59.7,29.96,NW,315,5.8,5.8,32,0.00,CLR,BKN,0.00,WeatherDisplay:10.37,2013-08-02 13:59:00,
2013-08-02 16:04:00,94.1,59.7,29.97,SW,225,5.8,5.8,32,0.00,CLR,BKN,0.00,WeatherDisplay:10.37,2013-08-02 14:04:00,
2013-08-02 16:09:00,94.1,59.7,29.96,ESE,112,5.8,5.8,32,0.00,CLR,BKN,0.00,WeatherDisplay:10.37,2013-08-02 14:09:00,
2013-08-02 16:14:00,94.1,59.7,29.96,NNW,338,5.8,5.8,32,0.00,CLR,BKN,0.00,WeatherDisplay:10.37,2013-08-02 14:14:00,
2013-08-02 16:19:00,94.3,59.9,29.96,West,270,6.9,6.9,32,0.00,CLR,BKN,0.00,WeatherDisplay:10.37,2013-08-02 14:19:00,
2013-08-02 16:24:00,94.5,60.9,29.96,NW,315,3.8,3.8,33,0.00,CLR,BKN,0.00,WeatherDisplay:10.37,2013-08-02 14:24:00,
2013-08-02 16:29:00,94.6,60.2,29.96,NW,315,5.8,5.8,32,0.00,CLR,BKN,0.00,WeatherDisplay:10.37,2013-08-02 14:29:00,
2013-08-02 16:34:00,94.8,60.4,29.96,SW,225,4.6,4.6,32,0.00,CLR,BKN,0.00,WeatherDisplay:10.37,2013-08-02 14:34:00,
2013-08-02 16:39:00,95.2,59.8,29.96,NE,45,5.4,5.4,31,0.00,CLR,BKN,0.00,WeatherDisplay:10.37,2013-08-02 14:39:00,
2013-08-02 16:44:00,95.2,58.9,29.96,North,0,6.9,6.9,30,0.00,CLR,BKN,0.00,WeatherDisplay:10.37,2013-08-02 14:44:00,
2013-08-02 16:49:00,95.2,58.9,29.96,NW,315,3.5,3.5,30,0.00,CLR,BKN,0.00,WeatherDisplay:10.37,2013-08-02 14:49:00,
2013-08-02 16:54:00,94.8,59.5,29.95,NE,45,6.9,6.9,31,0.00,CLR,BKN,0.00,WeatherDisplay:10.37,2013-08-02 14:54:00,
2013-08-02 16:59:00,95.0,58.7,29.95,NE,45,4.6,4.6,30,0.00,CLR,BKN,0.00,WeatherDisplay:10.37,2013-08-02 14:59:00,
2013-08-02 17:04:00,95.0,58.7,29.95,NW,315,8.1,8.1,30,0.00,CLR,BKN,0.00,WeatherDisplay:10.37,2013-08-02 15:04:00,
2013-08-02 17:09:00,95.0,58.7,29.95,North,0,6.9,6.9,30,0.00,CLR,BKN,0.00,WeatherDisplay:10.37,2013-08-02 15:09:00,
2013-08-02 17:14:00,95.0,58.7,29.95,East,90,3.5,3.5,30,0.00,CLR,BKN,0.00,WeatherDisplay:10.37,2013-08-02 15:14:00,
2013-08-02 17:19:00,94.8,58.6,29.95,NE,45,6.9,6.9,30,0.00,CLR,BKN,0.00,WeatherDisplay:10.37,2013-08-02 15:19:00,
2013-08-02 17:24:00,94.8,59.5,29.95,NW,315,5.8,5.8,31,0.00,CLR,BKN,0.00,WeatherDisplay:10.37,2013-08-02 15:24:00,
2013-08-02 17:29:00,94.6,59.3,29.95,East,90,5.8,5.8,31,0.00,CLR,BKN,0.00,WeatherDisplay:10.37,2013-08-02 15:29:00,
2013-08-02 17:35:00,94.8,59.5,29.95,NNE,19,2.0,6.0,31,0.00,CLR,BKN,0.00,WeatherDisplay:10.37,2013-08-02 15:35:00,
2013-08-02 17:40:00,95.2,58.9,29.95,North,0,3.0,7.0,30,0.00,CLR,BKN,0.00,WeatherDisplay:10.37,2013-08-02 15:40:00,
2013-08-02 17:45:00,95.2,57.9,29.95,NE,45,5.8,5.8,29,0.00,CLR,BKN,0.00,WeatherDisplay:10.37,2013-08-02 15:45:00,
2013-08-02 17:50:00,95.0,57.8,29.95,East,90,5.8,5.8,29,0.00,CLR,BKN,0.00,WeatherDisplay:10.37,2013-08-02 15:50:00,
2013-08-02 17:55:00,94.8,58.6,29.95,SE,135,3.5,3.5,30,0.00,CLR,BKN,0.00,WeatherDisplay:10.37,2013-08-02 15:55:00,
2013-08-02 18:00:00,94.8,58.6,29.95,NE,45,4.6,4.6,30,0.00,CLR,BKN,0.00,WeatherDisplay:10.37,2013-08-02 16:00:00,
2013-08-02 18:05:00,94.8,58.6,29.95,NE,45,3.8,3.8,30,0.00,CLR,BKN,0.00,WeatherDisplay:10.37,2013-08-02 16:05:00,
2013-08-02 18:10:00,94.5,58.2,29.95,East,90,3.5,3.5,30,0.00,CLR,BKN,0.00,WeatherDisplay:10.37,2013-08-02 16:10:00,
2013-08-02 18:15:00,94.3,59.0,29.95,North,0,3.5,3.5,31,0.00,CLR,BKN,0.00,WeatherDisplay:10.37,2013-08-02 16:15:00,
2013-08-02 18:20:00,94.1,58.8,29.95,North,0,4.6,4.6,31,0.00,CLR,BKN,0.00,WeatherDisplay:10.37,2013-08-02 16:20:00,
2013-08-02 18:25:00,93.9,58.7,29.94,NW,315,3.5,3.5,31,0.00,CLR,BKN,0.00,WeatherDisplay:10.37,2013-08-02 16:25:00,
2013-08-02 18:30:00,93.9,58.7,29.94,NW,315,2.3,0.0,31,0.00,CLR,BKN,0.00,WeatherDisplay:10.37,2013-08-02 16:30:00,
2013-08-02 18:35:00,93.7,58.5,29.95,East,90,3.5,3.5,31,0.00,CLR,BKN,0.00,WeatherDisplay:10.37,2013-08-02 16:35:00,
2013-08-02 18:40:00,93.9,58.7,29.94,NW,315,3.5,3.5,31,0.00,CLR,BKN,0.00,WeatherDisplay:10.37,2013-08-02 16:40:00,
2013-08-02 18:45:00,93.9,58.7,29.94,NW,315,3.5,3.5,31,0.00,CLR,BKN,0.00,WeatherDisplay:10.37,2013-08-02 16:45:00,
2013-08-02 18:50:00,93.6,58.4,29.94,North,0,3.5,3.5,31,0.00,CLR,BKN,0.00,WeatherDisplay:10.37,2013-08-02 16:50:00,
2013-08-02 18:55:00,93.0,58.8,29.95,East,90,2.3,2.3,32,0.00,CLR,BKN,0.00,WeatherDisplay:10.37,2013-08-02 16:55:00,
2013-08-02 19:00:00,92.5,58.3,29.94,NW,315,3.5,3.5,32,0.00,CLR,BKN,0.00,WeatherDisplay:10.37,2013-08-02 17:00:00,
2013-08-02 19:05:00,91.8,57.7,29.95,North,0,2.3,2.3,32,0.00,CLR,BKN,0.00,WeatherDisplay:10.37,2013-08-02 17:05:00,
2013-08-02 19:10:00,91.4,57.4,29.94,NW,315,1.2,0.0,32,0.00,CLR,BKN,0.00,WeatherDisplay:10.37,2013-08-02 17:10:00,
2013-08-02 19:15:00,90.9,55.1,29.95,East,90,2.3,0.0,30,0.00,CLR,BKN,0.00,WeatherDisplay:10.37,2013-08-02 17:15:00,
2013-08-02 19:20:00,90.3,55.6,29.94,East,90,1.6,1.6,31,0.00,CLR,BKN,0.00,WeatherDisplay:10.37,2013-08-02 17:20:00,
2013-08-02 19:25:00,89.8,56.0,29.94,SE,135,1.2,0.0,32,0.00,CLR,BKN,0.00,WeatherDisplay:10.37,2013-08-02 17:25:00,
2013-08-02 19:30:00,89.2,57.2,29.95,NE,45,1.6,1.6,34,0.00,CLR,BKN,0.00,WeatherDisplay:10.37,2013-08-02 17:30:00,
2013-08-02 19:35:00,88.7,56.7,29.95,NE,45,1.6,1.6,34,0.00,CLR,BKN,0.00,WeatherDisplay:10.37,2013-08-02 17:35:00,
2013-08-02 19:40:00,88.2,57.1,29.94,NE,45,1.2,0.0,35,0.00,CLR,BKN,0.00,WeatherDisplay:10.37,2013-08-02 17:40:00,
2013-08-02 19:45:00,87.4,58.7,29.95,NE,45,1.6,1.6,38,0.00,CLR,BKN,0.00,WeatherDisplay:10.37,2013-08-02 17:45:00,
2013-08-02 19:50:00,86.9,59.7,29.95,West,270,1.6,1.6,40,0.00,CLR,BKN,0.00,WeatherDisplay:10.37,2013-08-02 17:50:00,
2013-08-02 19:55:00,86.4,60.6,29.95,NW,315,2.3,2.3,42,0.00,CLR,BKN,0.00,WeatherDisplay:10.37,2013-08-02 17:55:00,
2013-08-02 20:00:00,85.8,61.4,29.95,West,270,1.6,1.6,44,0.00,CLR,BKN,0.00,WeatherDisplay:10.37,2013-08-02 18:00:00,
2013-08-02 20:05:00,85.8,61.4,29.95,West,270,1.6,1.6,44,0.00,CLR,BKN,0.00,WeatherDisplay:10.37,2013-08-02 18:05:00,
2013-08-02 20:10:00,84.6,61.5,29.95,West,270,1.2,0.0,46,0.00,CLR,BKN,0.00,WeatherDisplay:10.37,2013-08-02 18:10:00,
2013-08-02 20:15:00,83.7,61.9,29.95,West,270,1.2,0.0,48,0.00,CLR,BKN,0.00,WeatherDisplay:10.37,2013-08-02 18:15:00,
2013-08-02 20:20:00,82.9,61.8,29.95,West,270,1.2,0.0,49,0.00,CLR,BKN,0.00,WeatherDisplay:10.37,2013-08-02 18:20:00,
2013-08-02 20:25:00,82.6,62.1,29.95,West,270,0.0,0.0,50,0.00,CLR,BKN,0.00,WeatherDisplay:10.37,2013-08-02 18:25:00,
2013-08-02 20:30:00,81.9,62.0,29.95,West,270,0.0,0.0,51,0.00,CLR,BKN,0.00,WeatherDisplay:10.37,2013-08-02 18:30:00,
2013-08-02 20:35:00,81.3,62.6,29.95,West,270,1.6,1.6,53,0.00,CLR,BKN,0.00,WeatherDisplay:10.37,2013-08-02 18:35:00,
2013-08-02 20:40:00,80.6,62.4,29.95,West,270,1.2,0.0,54,0.00,CLR,BKN,0.00,WeatherDisplay:10.37,2013-08-02 18:40:00,
2013-08-02 20:45:00,80.4,63.3,29.95,West,270,1.2,0.0,56,0.00,CLR,BKN,0.00,WeatherDisplay:10.37,2013-08-02 18:45:00,
2013-08-02 20:50:00,79.9,63.3,29.96,West,270,0.0,0.0,57,0.00,CLR,BKN,0.00,WeatherDisplay:10.37,2013-08-02 18:50:00,
2013-08-02 20:55:00,79.2,63.1,29.95,West,270,0.0,0.0,58,0.00,CLR,BKN,0.00,WeatherDisplay:10.37,2013-08-02 18:55:00,
2013-08-02 21:00:00,78.8,63.3,29.96,West,270,0.0,0.0,59,0.00,CLR,BKN,0.00,WeatherDisplay:10.37,2013-08-02 19:00:00,
2013-08-02 21:05:00,78.4,63.9,29.95,West,270,1.6,1.6,61,0.00,CLR,BKN,0.00,WeatherDisplay:10.37,2013-08-02 19:05:00,
2013-08-02 21:10:00,78.1,63.5,29.96,West,270,0.0,0.0,61,0.00,CLR,BKN,0.00,WeatherDisplay:10.37,2013-08-02 19:10:00,
2013-08-02 21:15:00,77.7,63.7,29.95,SE,135,1.6,1.6,62,0.00,CLR,BKN,0.00,WeatherDisplay:10.37,2013-08-02 19:15:00,
2013-08-02 21:20:00,77.5,63.9,29.96,SE,135,1.2,0.0,63,0.00,CLR,BKN,0.00,WeatherDisplay:10.37,2013-08-02 19:20:00,
2013-08-02 21:25:00,77.2,63.6,29.96,NW,315,1.2,0.0,63,0.00,CLR,BKN,0.00,WeatherDisplay:10.37,2013-08-02 19:25:00,
2013-08-02 21:30:00,76.6,63.5,29.95,NW,315,1.2,0.0,64,0.00,CLR,BKN,0.00,WeatherDisplay:10.37,2013-08-02 19:30:00,
2013-08-02 21:35:00,76.5,63.4,29.95,NW,315,1.2,0.0,64,0.00,CLR,BKN,0.00,WeatherDisplay:10.37,2013-08-02 19:35:00,
2013-08-02 21:40:00,76.1,63.9,29.96,NW,315,1.2,0.0,66,0.00,CLR,BKN,0.00,WeatherDisplay:10.37,2013-08-02 19:40:00,
2013-08-02 21:45:00,75.7,63.6,29.96,NW,315,0.0,0.0,66,0.00,CLR,BKN,0.00,WeatherDisplay:10.37,2013-08-02 19:45:00,
2013-08-02 21:50:00,75.4,63.7,29.96,SE,135,2.2,2.2,67,0.00,CLR,BKN,0.00,WeatherDisplay:10.37,2013-08-02 19:50:00,
2013-08-02 21:55:00,75.2,64.3,29.96,South,180,3.5,3.5,69,0.00,CLR,BKN,0.00,WeatherDisplay:10.37,2013-08-02 19:55:00,
2013-08-02 22:00:00,74.8,64.0,29.97,South,180,2.3,2.3,69,0.00,CLR,BKN,0.00,WeatherDisplay:10.37,2013-08-02 20:00:00,
2013-08-02 22:05:00,74.8,64.0,29.96,South,180,2.3,2.3,69,0.00,CLR,BKN,0.00,WeatherDisplay:10.37,2013-08-02 20:05:00,
2013-08-02 22:10:00,74.1,62.9,29.96,South,180,2.3,2.3,68,0.00,CLR,BKN,0.00,WeatherDisplay:10.37,2013-08-02 20:10:00,
2013-08-02 22:15:00,73.8,62.1,29.97,South,180,2.3,2.3,67,0.00,CLR,BKN,0.00,WeatherDisplay:10.37,2013-08-02 20:15:00,
2013-08-02 22:20:00,73.6,61.5,29.96,SW,225,1.6,0.0,66,0.00,CLR,BKN,0.00,WeatherDisplay:10.37,2013-08-02 20:20:00,
2013-08-02 22:25:00,73.4,61.3,29.97,SW,225,1.2,0.0,66,0.00,CLR,BKN,0.00,WeatherDisplay:10.37,2013-08-02 20:25:00,
2013-08-02 22:30:00,73.2,61.2,29.96,SW,225,1.2,0.0,66,0.00,CLR,BKN,0.00,WeatherDisplay:10.37,2013-08-02 20:30:00,
2013-08-02 22:35:00,73.0,61.0,29.97,SW,225,0.0,0.0,66,0.00,CLR,BKN,0.00,WeatherDisplay:10.37,2013-08-02 20:35:00,
2013-08-02 22:40:00,72.9,61.7,29.97,SE,135,1.6,1.6,68,0.00,CLR,BKN,0.00,WeatherDisplay:10.37,2013-08-02 20:40:00,
2013-08-02 22:45:00,72.7,61.5,29.97,NE,45,1.2,0.0,68,0.00,CLR,BKN,0.00,WeatherDisplay:10.37,2013-08-02 20:45:00,
2013-08-02 22:50:00,72.7,60.7,29.97,East,90,2.2,2.2,66,0.00,CLR,BKN,0.00,WeatherDisplay:10.37,2013-08-02 20:50:00,
2013-08-02 22:55:00,72.3,59.9,29.97,East,90,1.6,0.0,65,0.00,CLR,BKN,0.00,WeatherDisplay:10.37,2013-08-02 20:55:00,
2013-08-02 23:00:00,72.0,59.1,29.97,East,90,1.2,0.0,64,0.00,CLR,BKN,0.00,WeatherDisplay:10.37,2013-08-02 21:00:00,
2013-08-02 23:05:00,71.6,58.8,29.97,NW,315,1.2,0.0,64,0.00,CLR,BKN,0.00,WeatherDisplay:10.37,2013-08-02 21:05:00,
2013-08-02 23:10:00,71.4,59.0,29.97,North,0,1.2,0.0,65,0.00,CLR,BKN,0.00,WeatherDisplay:10.37,2013-08-02 21:10:00,
2013-08-02 23:15:00,71.2,58.9,29.97,North,0,1.2,0.0,65,0.00,CLR,BKN,0.00,WeatherDisplay:10.37,2013-08-02 21:15:00,
2013-08-02 23:20:00,71.1,59.1,29.96,East,90,1.2,0.0,66,0.00,CLR,BKN,0.00,WeatherDisplay:10.37,2013-08-02 21:20:00,
2013-08-02 23:25:00,70.9,59.0,29.96,East,90,1.2,0.0,66,0.00,CLR,BKN,0.00,WeatherDisplay:10.37,2013-08-02 21:25:00,
2013-08-02 23:30:00,70.5,58.6,29.96,NE,45,1.6,1.6,66,0.00,CLR,BKN,0.00,WeatherDisplay:10.37,2013-08-02 21:30:00,
2013-08-02 23:35:00,70.3,58.4,29.97,NE,45,1.6,1.6,66,0.00,CLR,BKN,0.00,WeatherDisplay:10.37,2013-08-02 21:35:00,
2013-08-02 23:41:00,70.0,58.1,29.96,East,90,1.2,0.0,66,0.00,CLR,BKN,0.00,WeatherDisplay:10.37,2013-08-02 21:41:00,
2013-08-02 23:46:00,69.8,58.3,29.97,East,90,0.0,0.0,67,0.00,CLR,BKN,0.00,WeatherDisplay:10.37,2013-08-02 21:46:00,
2013-08-02 23:51:00,69.6,58.6,29.97,East,90,0.0,0.0,68,0.00,CLR,BKN,0.00,WeatherDisplay:10.37,2013-08-02 21:51:00,
2013-08-02 23:57:00,69.4,58.8,29.97,East,90,0.0,0.0,69,0.00,CLR,BKN,0.00,WeatherDisplay:10.37,2013-08-02 21:57:00,